createdAt,value
2024-04-13T00:00:27.955Z,8.80
2024-04-13T00:02:55.037Z,8.90
2024-04-13T00:05:23.289Z,8.80
2024-04-13T00:07:50.233Z,8.80
2024-04-13T00:10:17.266Z,8.80
2024-04-13T00:12:44.271Z,8.80
2024-04-13T00:15:11.275Z,8.90
2024-04-13T00:17:38.278Z,8.80
2024-04-13T00:20:06.037Z,8.80
2024-04-13T00:22:32.975Z,8.90
2024-04-13T00:24:59.932Z,8.90
2024-04-13T00:27:28.668Z,8.90
2024-04-13T00:29:55.781Z,8.90
2024-04-13T00:32:22.742Z,8.90
2024-04-13T00:34:49.730Z,8.90
2024-04-13T00:37:17.275Z,8.90
2024-04-13T00:39:44.282Z,9.00
2024-04-13T00:42:11.536Z,9.00
2024-04-13T00:44:43.854Z,9.00
2024-04-13T00:47:11.731Z,9.00
2024-04-13T00:49:42.453Z,9.00
2024-04-13T00:52:12.815Z,9.00
2024-04-13T00:54:41.590Z,9.10
2024-04-13T00:57:10.901Z,9.10
2024-04-13T00:59:42.067Z,9.10
2024-04-13T01:02:14.573Z,9.10
2024-04-13T01:04:43.312Z,9.10
2024-04-13T01:07:11.399Z,9.20
2024-04-13T01:09:38.460Z,9.20
2024-04-13T01:12:07.425Z,9.30
2024-04-13T01:14:37.138Z,9.30
2024-04-13T01:17:04.347Z,9.30
2024-04-13T01:19:32.810Z,9.30
2024-04-13T01:22:05.160Z,9.30
2024-04-13T01:24:32.579Z,9.30
2024-04-13T01:26:59.708Z,9.40
2024-04-13T01:29:26.721Z,9.40
2024-04-13T01:31:53.755Z,9.40
2024-04-13T01:34:20.738Z,9.50
2024-04-13T01:36:47.699Z,9.50
2024-04-13T01:39:15.420Z,9.50
2024-04-13T01:41:52.930Z,9.50
2024-04-13T01:44:20.090Z,9.50
2024-04-13T01:46:47.110Z,9.50
2024-04-13T01:49:14.096Z,9.60
2024-04-13T01:51:41.089Z,9.60
2024-04-13T01:54:08.167Z,9.60
2024-04-13T01:56:35.521Z,9.60
2024-04-13T01:59:02.535Z,9.60
2024-04-13T02:01:31.791Z,9.60
2024-04-13T02:03:58.889Z,9.70
2024-04-13T02:06:26.228Z,9.70
2024-04-13T02:08:54.740Z,9.70
2024-04-13T02:11:21.802Z,9.70
2024-04-13T02:13:48.810Z,9.80
2024-04-13T02:16:15.953Z,9.80
2024-04-13T02:18:43.338Z,9.80
2024-04-13T02:21:10.427Z,9.80
2024-04-13T02:23:37.626Z,9.80
2024-04-13T02:26:08.999Z,9.80
2024-04-13T02:28:36.370Z,9.80
2024-04-13T02:31:04.328Z,9.80
2024-04-13T02:33:33.893Z,9.90
2024-04-13T02:36:03.189Z,9.90
2024-04-13T02:38:31.548Z,9.80
2024-04-13T02:40:59.956Z,9.90
2024-04-13T02:43:32.467Z,9.90
2024-04-13T02:46:09.205Z,10.00
2024-04-13T02:48:45.756Z,10.00
2024-04-13T02:51:15.576Z,9.90
2024-04-13T02:53:43.526Z,9.90
2024-04-13T02:56:10.530Z,10.00
2024-04-13T02:58:38.719Z,10.00
2024-04-13T03:01:06.302Z,10.00
2024-04-13T03:03:33.408Z,10.00
2024-04-13T03:06:19.510Z,10.00
2024-04-13T03:08:46.501Z,10.00
2024-04-13T03:11:13.874Z,10.00
2024-04-13T03:13:41.205Z,10.00
2024-04-13T03:16:12.635Z,10.00
2024-04-13T03:18:40.712Z,10.00
2024-04-13T03:21:08.383Z,10.00
2024-04-13T03:23:37.090Z,10.00
2024-04-13T03:26:05.051Z,9.90
2024-04-13T03:28:35.009Z,9.90
2024-04-13T03:31:02.613Z,9.90
2024-04-13T03:33:30.695Z,9.90
2024-04-13T03:36:06.056Z,9.90
2024-04-13T03:38:33.511Z,9.80
2024-04-13T03:41:08.056Z,9.90
2024-04-13T03:43:39.186Z,9.80
2024-04-13T03:46:08.365Z,9.80
2024-04-13T03:48:40.728Z,9.80
2024-04-13T03:51:08.632Z,9.70
2024-04-13T03:53:41.584Z,9.70
2024-04-13T03:56:08.773Z,9.70
2024-04-13T03:58:35.814Z,9.70
2024-04-13T04:01:03.309Z,9.70
2024-04-13T04:03:30.498Z,9.70
2024-04-13T04:05:58.665Z,9.60
2024-04-13T04:08:26.580Z,9.60
2024-04-13T04:10:53.575Z,9.60
2024-04-13T04:13:20.558Z,9.60
2024-04-13T04:15:47.588Z,9.60
2024-04-13T04:18:14.938Z,9.60
2024-04-13T04:20:42.681Z,9.50
2024-04-13T04:23:09.625Z,9.50
2024-04-13T04:25:36.558Z,9.50
2024-04-13T04:28:03.835Z,9.40
2024-04-13T04:30:30.854Z,9.40
2024-04-13T04:32:58.307Z,9.40
2024-04-13T04:35:25.345Z,9.50
2024-04-13T04:37:52.313Z,9.40
2024-04-13T04:40:19.345Z,9.40
2024-04-13T04:42:46.331Z,9.40
2024-04-13T04:45:13.427Z,9.40
2024-04-13T04:47:40.578Z,9.40
2024-04-13T04:50:07.852Z,9.40
2024-04-13T04:52:34.824Z,9.40
2024-04-13T04:55:03.243Z,9.40
2024-04-13T04:57:30.679Z,9.30
2024-04-13T04:59:57.992Z,9.30
2024-04-13T05:02:26.071Z,9.30
2024-04-13T05:04:53.666Z,9.30
2024-04-13T05:07:23.676Z,9.30
2024-04-13T05:09:50.719Z,9.30
2024-04-13T05:12:17.779Z,9.30
2024-04-13T05:14:44.795Z,9.30
2024-04-13T05:17:14.772Z,9.30
2024-04-13T05:19:43.497Z,9.10
2024-04-13T05:22:14.230Z,9.10
2024-04-13T05:24:41.358Z,9.10
2024-04-13T05:27:09.300Z,9.10
2024-04-13T05:29:37.289Z,9.10
2024-04-13T05:32:09.710Z,9.00
2024-04-13T05:34:38.665Z,9.00
2024-04-13T05:37:08.091Z,9.10
2024-04-13T05:39:35.653Z,9.10
2024-04-13T05:42:02.927Z,9.00
2024-04-13T05:44:32.878Z,9.10
2024-04-13T05:47:00.295Z,9.00
2024-04-13T05:49:27.390Z,9.10
2024-04-13T05:51:57.770Z,9.10
2024-04-13T05:54:25.266Z,9.10
2024-04-13T05:56:57.030Z,9.00
2024-04-13T05:59:25.574Z,9.00
2024-04-13T06:01:53.573Z,9.00
2024-04-13T06:04:20.780Z,9.00
2024-04-13T06:06:50.116Z,9.00
2024-04-13T06:09:17.471Z,9.10
2024-04-13T06:11:49.003Z,9.10
2024-04-13T06:14:17.273Z,9.10
2024-04-13T06:16:46.218Z,9.20
2024-04-13T06:19:14.934Z,9.20
2024-04-13T06:21:42.260Z,9.30
2024-04-13T06:24:10.606Z,9.30
2024-04-13T06:26:38.264Z,9.30
2024-04-13T06:29:05.577Z,9.30
2024-04-13T06:31:32.537Z,9.40
2024-04-13T06:33:59.736Z,9.30
2024-04-13T06:36:28.077Z,9.40
2024-04-13T06:38:55.673Z,9.60
2024-04-13T06:41:22.643Z,9.70
2024-04-13T06:43:56.839Z,9.70
2024-04-13T06:46:23.890Z,9.60
2024-04-13T06:48:50.880Z,9.60
2024-04-13T06:51:17.922Z,9.70
2024-04-13T06:53:45.999Z,9.70
2024-04-13T06:56:14.805Z,9.60
2024-04-13T06:58:42.212Z,9.60
2024-04-13T07:01:09.338Z,9.60
2024-04-13T07:03:36.443Z,9.50
2024-04-13T07:06:05.912Z,9.60
2024-04-13T07:08:40.029Z,9.60
2024-04-13T07:11:12.426Z,9.70
2024-04-13T07:13:39.468Z,9.70
2024-04-13T07:16:08.682Z,9.70
2024-04-13T07:18:35.837Z,9.70
2024-04-13T07:21:03.260Z,9.70
2024-04-13T07:23:30.242Z,9.60
2024-04-13T07:26:01.356Z,9.60
2024-04-13T07:28:29.258Z,9.40
2024-04-13T07:30:56.410Z,9.40
2024-04-13T07:33:23.591Z,9.30
2024-04-13T07:35:50.723Z,9.20
2024-04-13T07:38:17.739Z,9.20
2024-04-13T07:40:44.764Z,9.20
2024-04-13T07:43:11.746Z,9.20
2024-04-13T07:45:38.736Z,9.30
2024-04-13T07:48:06.082Z,9.30
2024-04-13T07:50:33.127Z,9.30
2024-04-13T07:53:00.059Z,9.20
2024-04-13T07:55:27.026Z,9.30
2024-04-13T07:57:54.013Z,9.30
2024-04-13T08:00:21.488Z,9.40
2024-04-13T08:02:48.710Z,9.40
2024-04-13T08:05:15.789Z,9.50
2024-04-13T08:07:42.841Z,9.50
2024-04-13T08:10:09.870Z,9.40
2024-04-13T08:12:36.931Z,9.50
2024-04-13T08:15:04.566Z,9.60
2024-04-13T08:17:31.573Z,9.70
2024-04-13T08:19:58.521Z,9.60
2024-04-13T08:22:25.528Z,9.60
2024-04-13T08:24:54.805Z,9.60
2024-04-13T08:27:22.696Z,9.40
2024-04-13T08:29:51.517Z,9.40
2024-04-13T08:32:19.198Z,9.30
2024-04-13T08:34:46.203Z,9.40
2024-04-13T08:37:13.196Z,9.50
2024-04-13T08:39:42.749Z,9.60
2024-04-13T08:42:11.958Z,9.70
2024-04-13T08:44:43.651Z,9.80
2024-04-13T08:47:11.761Z,9.90
2024-04-13T08:49:41.290Z,10.20
2024-04-13T08:52:09.039Z,10.50
2024-04-13T08:54:36.869Z,10.70
2024-04-13T08:57:07.540Z,10.90
2024-04-13T08:59:35.338Z,10.80
2024-04-13T09:02:05.965Z,10.80
2024-04-13T09:04:35.894Z,10.70
2024-04-13T09:07:02.955Z,10.60
2024-04-13T09:09:31.217Z,10.50
2024-04-13T09:11:58.948Z,10.50
2024-04-13T09:14:27.494Z,10.50
2024-04-13T09:16:54.734Z,10.50
2024-04-13T09:19:21.738Z,10.50
2024-04-13T09:21:50.754Z,10.70
2024-04-13T09:24:17.846Z,10.80
2024-04-13T09:26:46.359Z,10.90
2024-04-13T09:29:24.904Z,11.10
2024-04-13T09:31:51.951Z,11.10
2024-04-13T09:34:19.132Z,11.10
2024-04-13T09:36:46.416Z,11.00
2024-04-13T09:39:24.364Z,11.00
2024-04-13T09:41:52.052Z,10.90
2024-04-13T09:44:29.571Z,10.90
2024-04-13T09:46:59.577Z,10.80
2024-04-13T09:49:26.868Z,10.70
2024-04-13T09:51:53.944Z,10.70
2024-04-13T09:54:28.767Z,10.80
2024-04-13T09:57:00.008Z,10.90
2024-04-13T09:59:32.800Z,10.80
2024-04-13T10:01:59.889Z,10.80
2024-04-13T10:04:29.717Z,10.80
2024-04-13T10:07:01.855Z,10.90
2024-04-13T10:09:33.491Z,11.00
2024-04-13T10:12:01.775Z,11.10
2024-04-13T10:14:29.957Z,11.10
2024-04-13T10:17:02.689Z,11.00
2024-04-13T10:19:30.020Z,11.00
2024-04-13T10:22:01.353Z,11.00
2024-04-13T10:24:29.067Z,11.10
2024-04-13T10:27:10.207Z,11.20
2024-04-13T10:29:41.966Z,11.10
2024-04-13T10:32:23.796Z,11.20
2024-04-13T10:34:51.070Z,11.10
2024-04-13T10:37:28.028Z,11.10
2024-04-13T10:39:57.192Z,11.20
2024-04-13T10:42:41.326Z,11.40
2024-04-13T10:45:19.479Z,11.70
2024-04-13T10:47:47.787Z,12.00
2024-04-13T10:50:17.411Z,12.10
2024-04-13T10:52:45.062Z,12.20
2024-04-13T10:55:13.799Z,12.30
2024-04-13T10:57:42.733Z,12.40
2024-04-13T11:00:10.500Z,12.60
2024-04-13T11:02:38.898Z,12.80
2024-04-13T11:05:06.956Z,12.70
2024-04-13T11:07:36.129Z,12.70
2024-04-13T11:10:04.500Z,12.50
2024-04-13T11:12:31.914Z,12.50
2024-04-13T11:14:58.909Z,12.60
2024-04-13T11:17:25.989Z,12.60
2024-04-13T11:19:53.112Z,12.80
2024-04-13T11:22:21.200Z,12.80
2024-04-13T11:24:48.397Z,12.90
2024-04-13T11:27:17.225Z,12.80
2024-04-13T11:29:44.582Z,12.70
2024-04-13T11:32:12.246Z,12.60
2024-04-13T11:34:40.196Z,12.60
2024-04-13T11:37:10.615Z,12.60
2024-04-13T11:39:38.484Z,12.50
2024-04-13T11:42:07.741Z,12.50
2024-04-13T11:44:39.542Z,12.40
2024-04-13T11:47:08.323Z,12.60
2024-04-13T11:49:40.999Z,12.70
2024-04-13T11:52:16.784Z,12.70
2024-04-13T11:54:44.583Z,12.70
2024-04-13T11:57:14.971Z,12.60
2024-04-13T11:59:43.392Z,12.60
2024-04-13T12:02:10.596Z,12.80
2024-04-13T12:04:38.630Z,12.80
2024-04-13T12:07:06.574Z,12.80
2024-04-13T12:09:35.567Z,12.80
2024-04-13T12:12:07.227Z,12.80
2024-04-13T12:14:46.802Z,12.80
2024-04-13T12:17:18.150Z,12.90
2024-04-13T12:19:45.858Z,12.80
2024-04-13T12:22:13.058Z,12.70
2024-04-13T12:24:40.131Z,12.50
2024-04-13T12:27:07.437Z,12.60
2024-04-13T12:29:34.414Z,12.70
2024-04-13T12:32:01.758Z,12.70
2024-04-13T12:34:28.839Z,12.70
2024-04-13T12:36:55.987Z,12.70
2024-04-13T12:39:22.997Z,12.60
2024-04-13T12:41:51.791Z,12.60
2024-04-13T12:44:18.949Z,12.60
2024-04-13T12:46:46.033Z,12.70
2024-04-13T12:49:13.130Z,12.90
2024-04-13T12:51:40.234Z,13.10
2024-04-13T12:54:07.375Z,13.20
2024-04-13T12:56:34.355Z,13.40
2024-04-13T12:59:01.316Z,13.70
2024-04-13T13:01:28.744Z,14.00
2024-04-13T13:03:55.975Z,14.10
2024-04-13T13:06:23.108Z,14.20
2024-04-13T13:08:50.138Z,14.10
2024-04-13T13:11:17.143Z,14.00
2024-04-13T13:13:44.394Z,14.00
2024-04-13T13:16:11.393Z,14.00
2024-04-13T13:18:38.425Z,14.10
2024-04-13T13:21:05.805Z,14.10
2024-04-13T13:23:33.913Z,14.30
2024-04-13T13:26:00.931Z,14.40
2024-04-13T13:28:28.031Z,14.40
2024-04-13T13:30:55.119Z,14.40
2024-04-13T13:33:22.225Z,14.30
2024-04-13T13:35:49.326Z,14.30
2024-04-13T13:38:16.325Z,14.10
2024-04-13T13:40:43.317Z,14.10
2024-04-13T13:43:10.270Z,14.20
2024-04-13T13:45:37.553Z,14.20
2024-04-13T13:48:04.912Z,14.10
2024-04-13T13:50:31.912Z,14.10
2024-04-13T13:52:58.940Z,14.10
2024-04-13T13:55:26.131Z,14.10
2024-04-13T13:57:53.168Z,14.30
2024-04-13T14:00:22.129Z,14.30
2024-04-13T14:02:49.211Z,14.40
2024-04-13T14:05:16.398Z,14.50
2024-04-13T14:07:43.379Z,14.40
2024-04-13T14:10:10.356Z,14.40
2024-04-13T14:12:37.454Z,14.40
2024-04-13T14:15:05.103Z,14.30
2024-04-13T14:17:32.350Z,14.30
2024-04-13T14:19:59.338Z,14.30
2024-04-13T14:22:27.625Z,14.30
2024-04-13T14:24:54.954Z,14.20
2024-04-13T14:27:21.946Z,14.20
2024-04-13T14:29:50.780Z,14.10
2024-04-13T14:32:18.329Z,14.00
2024-04-13T14:34:45.393Z,13.80
2024-04-13T14:37:12.659Z,13.70
2024-04-13T14:39:41.517Z,13.50
2024-04-13T14:42:09.295Z,13.40
2024-04-13T14:44:38.326Z,13.40
2024-04-13T14:47:06.112Z,13.40
2024-04-13T14:49:33.167Z,13.40
2024-04-13T14:52:00.171Z,13.40
2024-04-13T14:54:27.217Z,13.30
2024-04-13T14:56:54.626Z,13.30
2024-04-13T14:59:22.479Z,13.30
2024-04-13T15:01:49.793Z,13.30
2024-04-13T15:04:16.809Z,13.30
2024-04-13T15:06:45.304Z,13.20
2024-04-13T15:09:13.458Z,13.10
2024-04-13T15:11:42.778Z,13.10
2024-04-13T15:14:09.854Z,13.10
2024-04-13T15:16:38.253Z,13.00
2024-04-13T15:19:05.861Z,13.00
2024-04-13T15:21:32.958Z,12.90
2024-04-13T15:23:59.996Z,12.80
2024-04-13T15:26:28.627Z,12.70
2024-04-13T15:28:57.701Z,12.60
2024-04-13T15:31:27.035Z,12.50
2024-04-13T15:33:54.244Z,12.50
2024-04-13T15:36:21.544Z,12.50
2024-04-13T15:38:49.318Z,12.50
2024-04-13T15:41:16.461Z,12.50
2024-04-13T15:43:43.498Z,12.40
2024-04-13T15:46:11.747Z,12.40
2024-04-13T15:48:38.903Z,12.30
2024-04-13T15:51:06.003Z,12.20
2024-04-13T15:53:33.055Z,12.10
2024-04-13T15:56:01.356Z,12.10
2024-04-13T15:58:29.296Z,12.10
2024-04-13T16:00:56.432Z,12.00
2024-04-13T16:03:23.585Z,12.00
2024-04-13T16:05:55.102Z,12.00
2024-04-13T16:08:22.666Z,12.00
2024-04-13T16:10:51.101Z,11.90
2024-04-13T16:13:18.523Z,12.00
2024-04-13T16:15:46.667Z,11.90
2024-04-13T16:18:15.778Z,11.90
2024-04-13T16:20:42.752Z,11.90
2024-04-13T16:23:10.950Z,11.80
2024-04-13T16:25:38.630Z,11.80
2024-04-13T16:28:05.942Z,11.80
2024-04-13T16:30:34.421Z,11.70
2024-04-13T16:33:05.039Z,11.80
2024-04-13T16:35:32.106Z,11.70
2024-04-13T16:37:59.150Z,11.80
2024-04-13T16:40:26.964Z,11.70
2024-04-13T16:42:54.017Z,11.70
2024-04-13T16:45:21.090Z,11.60
2024-04-13T16:47:48.175Z,11.60
2024-04-13T16:50:17.934Z,11.60
2024-04-13T16:52:46.051Z,11.50
2024-04-13T16:55:13.930Z,11.50
2024-04-13T16:57:40.985Z,11.80
2024-04-13T17:00:09.205Z,11.50
2024-04-13T17:02:36.165Z,11.50
2024-04-13T17:05:03.186Z,11.40
2024-04-13T17:07:31.633Z,11.40
2024-04-13T17:09:58.627Z,11.40
2024-04-13T17:12:28.682Z,11.30
2024-04-13T17:14:56.194Z,11.30
2024-04-13T17:17:28.730Z,11.20
2024-04-13T17:19:58.667Z,11.20
2024-04-13T17:22:27.140Z,11.10
2024-04-13T17:24:56.024Z,11.20
2024-04-13T17:27:24.643Z,11.10
2024-04-13T17:29:51.898Z,11.10
2024-04-13T17:32:20.444Z,11.10
2024-04-13T17:34:49.428Z,11.10
2024-04-13T17:37:17.603Z,11.00
2024-04-13T17:39:47.720Z,11.00
2024-04-13T17:42:19.240Z,11.00
2024-04-13T17:44:48.104Z,11.00
2024-04-13T17:47:15.301Z,11.00
2024-04-13T17:49:44.185Z,11.00
2024-04-13T17:52:12.158Z,11.00
2024-04-13T17:54:40.702Z,11.00
2024-04-13T17:57:08.262Z,11.00
2024-04-13T17:59:37.964Z,10.90
2024-04-13T18:02:06.369Z,10.90
2024-04-13T18:04:33.410Z,10.90
2024-04-13T18:07:06.658Z,10.80
2024-04-13T18:09:35.768Z,10.90
2024-04-13T18:12:05.784Z,10.90
2024-04-13T18:14:32.743Z,10.90
2024-04-13T18:16:59.793Z,10.90
2024-04-13T18:19:27.404Z,10.80
2024-04-13T18:21:55.838Z,10.80
2024-04-13T18:24:25.396Z,10.80
2024-04-13T18:26:55.223Z,10.80
2024-04-13T18:29:25.903Z,10.80
2024-04-13T18:31:53.181Z,10.80
2024-04-13T18:34:21.953Z,10.80
2024-04-13T18:36:50.739Z,10.80
2024-04-13T18:39:22.214Z,10.80
2024-04-13T18:41:49.197Z,10.80
2024-04-13T18:44:16.136Z,10.80
2024-04-13T18:46:43.142Z,10.80
2024-04-13T18:49:12.729Z,10.80
2024-04-13T18:51:41.339Z,10.80
2024-04-13T18:54:09.628Z,10.80
2024-04-13T18:56:36.576Z,10.80
2024-04-13T18:59:05.087Z,10.80
2024-04-13T19:01:33.374Z,10.80
2024-04-13T19:04:00.456Z,10.70
2024-04-13T19:06:27.607Z,10.70
2024-04-13T19:08:54.808Z,10.80
2024-04-13T19:11:23.851Z,10.70
2024-04-13T19:13:55.700Z,10.80
2024-04-13T19:16:23.220Z,10.70
2024-04-13T19:18:52.755Z,10.80
2024-04-13T19:21:21.855Z,10.80
2024-04-13T19:23:49.427Z,10.80
2024-04-13T19:26:21.847Z,10.80
2024-04-13T19:28:51.009Z,10.80
2024-04-13T19:31:19.199Z,10.80
2024-04-13T19:33:48.672Z,10.80
2024-04-13T19:36:16.992Z,10.80
2024-04-13T19:38:44.437Z,10.80
2024-04-13T19:41:11.413Z,10.80
2024-04-13T19:43:38.373Z,10.80
2024-04-13T19:46:07.707Z,10.80
2024-04-13T19:48:34.910Z,10.70
2024-04-13T19:51:02.438Z,10.80
2024-04-13T19:53:32.847Z,10.70
2024-04-13T19:55:59.999Z,10.70
2024-04-13T19:58:26.948Z,10.70
2024-04-13T20:00:53.968Z,10.70
2024-04-13T20:03:24.203Z,10.70
2024-04-13T20:05:52.501Z,10.60
2024-04-13T20:08:19.468Z,10.60
2024-04-13T20:10:46.524Z,10.60
2024-04-13T20:13:14.704Z,10.60
2024-04-13T20:16:12.394Z,10.60
2024-04-13T20:18:42.602Z,10.60
2024-04-13T20:21:14.880Z,10.60
2024-04-13T20:23:42.211Z,10.60
2024-04-13T20:26:09.530Z,10.60
2024-04-13T20:28:36.648Z,10.60
2024-04-13T20:31:03.682Z,10.60
2024-04-13T20:33:31.983Z,10.50
2024-04-13T20:35:59.089Z,10.60
2024-04-13T20:38:26.847Z,10.60
2024-04-13T20:40:55.432Z,10.50
2024-04-13T20:43:22.490Z,10.60
2024-04-13T20:45:49.612Z,10.60
2024-04-13T20:48:16.943Z,10.60
2024-04-13T20:50:47.748Z,10.60
2024-04-13T20:53:15.399Z,10.60
2024-04-13T20:55:42.622Z,10.60
2024-04-13T20:58:09.673Z,10.50
2024-04-13T21:00:39.953Z,10.50
2024-04-13T21:03:07.143Z,10.50
2024-04-13T21:05:34.747Z,10.50
2024-04-13T21:08:02.947Z,10.50
2024-04-13T21:10:31.382Z,10.50
2024-04-13T21:12:58.644Z,10.40
2024-04-13T21:15:26.115Z,10.40
2024-04-13T21:17:53.270Z,10.40
2024-04-13T21:20:20.391Z,10.40
2024-04-13T21:22:47.380Z,10.30
2024-04-13T21:25:16.059Z,10.30
2024-04-13T21:27:43.106Z,10.20
2024-04-13T21:30:12.077Z,10.20
2024-04-13T21:32:43.166Z,10.10
2024-04-13T21:35:13.181Z,10.10
2024-04-13T21:37:40.861Z,10.10
2024-04-13T21:40:10.436Z,10.00
2024-04-13T21:42:37.892Z,10.00
2024-04-13T21:45:06.708Z,10.00
2024-04-13T21:47:35.766Z,9.90
2024-04-13T21:50:02.794Z,9.90
2024-04-13T21:52:31.228Z,9.80
2024-04-13T21:54:58.356Z,9.80
2024-04-13T21:57:25.505Z,9.80
2024-04-13T21:59:52.480Z,9.80
2024-04-13T22:02:19.849Z,9.80
2024-04-13T22:04:46.905Z,9.70
2024-04-13T22:07:13.999Z,9.70
2024-04-13T22:09:41.000Z,9.70
2024-04-13T22:12:08.348Z,9.70
2024-04-13T22:14:36.470Z,9.70
2024-04-13T22:17:04.373Z,9.70
2024-04-13T22:19:33.290Z,9.80
2024-04-13T22:22:00.519Z,9.70
2024-04-13T22:24:27.532Z,9.80
2024-04-13T22:26:54.512Z,9.80
2024-04-13T22:29:21.492Z,9.80
2024-04-13T22:31:48.534Z,9.80
2024-04-13T22:34:15.773Z,9.80
2024-04-13T22:36:42.827Z,9.80
2024-04-13T22:39:11.113Z,9.80
2024-04-13T22:41:39.213Z,9.80
2024-04-13T22:44:06.291Z,9.80
2024-04-13T22:46:33.431Z,9.90
2024-04-13T22:49:04.354Z,9.80
2024-04-13T22:51:33.280Z,9.90
2024-04-13T22:54:00.263Z,9.90
2024-04-13T22:56:27.517Z,9.90
2024-04-13T22:58:54.505Z,9.90
2024-04-13T23:01:21.618Z,9.90
2024-04-13T23:03:48.820Z,9.90
2024-04-13T23:06:15.869Z,9.90
2024-04-13T23:08:42.813Z,10.00
2024-04-13T23:11:09.827Z,10.00
2024-04-13T23:13:36.840Z,9.90
2024-04-13T23:16:04.166Z,9.90
2024-04-13T23:18:31.405Z,9.90
2024-04-13T23:20:58.468Z,9.90
2024-04-13T23:23:25.477Z,9.90
2024-04-13T23:25:52.483Z,9.90
2024-04-13T23:28:19.464Z,9.90
2024-04-13T23:30:46.432Z,9.90
2024-04-13T23:33:14.174Z,9.90
2024-04-13T23:35:41.103Z,9.90
2024-04-13T23:38:09.398Z,10.00
2024-04-13T23:40:39.399Z,9.90
2024-04-13T23:43:06.406Z,10.00
2024-04-13T23:45:33.375Z,9.90
2024-04-13T23:48:00.384Z,9.90
2024-04-13T23:50:27.373Z,9.90
2024-04-13T23:52:54.297Z,10.00
2024-04-13T23:55:21.572Z,9.90
2024-04-13T23:57:48.596Z,10.00
